CheckWX is a tool to help pilots better visualize weather data.  It is not intended as a substitute for an official pre-flight weather briefing.

06:25:05 UTC

KHND TAF
Henderson Executive Airport
Las Vegas, Nevada, USA
KHND 131135Z 1312/1412 21014G22KT P6SM FEW150 FM131800 22018G26KT P6SM FEW150 FM140300 21012G22KT P6SM SKC

Jul-13@
12:00 UTC

Jul-13 @ 12:00 UTC

Jul-13@
18:00 UTC

Jul-13 @ 18:00 UTC

TAF KHND 131135Z 1312/1412 21014G22KT P6SM FEW150

Expired

Wind
  • 210° at 14 KTS
  • {Gusting to 22 KTS
Cloud Levels
  • Few at 15,000' AGL

Jul-13@
18:00 UTC

Jul-13 @ 18:00 UTC

Jul-14@
03:00 UTC

Jul-14 @ 03:00 UTC

FM131800 22018G26KT P6SM FEW150

Expired

Wind
  • 220° at 18 KTS
  • {Gusting to 26 KTS
Cloud Levels
  • Few at 15,000' AGL

Jul-14@
03:00 UTC

Jul-14 @ 03:00 UTC

Jul-14@
12:00 UTC

Jul-14 @ 12:00 UTC

FM140300 21012G22KT P6SM SKC

From

From Standard forecast or significant change

Wind
  • 210° at 12 KTS
  • {Gusting to 22 KTS
Cloud Levels
  • Clear skies